Mesquite, NV

12:46 AM PDT on August 02, 2015 (GMT -0700)
Mesquite, Nevada | | Change Station
CLOSE
Current Station
Personal Weather Station
Location: Mesquite, NV
Elevation: 1601 ft
Nearby Weather Stations

Elev 1601 ft 36.80 °N, 114.08 °W | Updated 0 second ago

Partly Cloudy
Partly Cloudy
84.1 °F
Feels Like 85 °F
N
2.0
Wind Variable Wind from ENE
Gusts 5.0 mph

Today
High -- | Low -- °F
--% Chance of Precip.
Yesterday
High -- | Low -- °F
Precip. -- in
5:42 AM 7:41 PM
Waning Gibbous, 95% visible
Pressure 29.97 in
Visibility 10.0 miles
Clouds Few 12000 ft
Heat Index 85 °F
Dew Point 62 °F
Humidity 48%
Rainfall 0.00 in
Snow Depth Not available.
UV 0 out of 12
Pollen 4.50 out of 12
Air Quality Not available.
Flu Activity Not available.
METAR KSGU 020735Z AUTO 16005KT 10SM FEW120 27/12 A2997 RMK AO1

More Conditions Fewer Conditions

Pressure 29.97 in
Visibility 10.0 miles
Clouds Few 12000 ft
Heat Index 85 °F
Dew Point 62 °F
Humidity 48%
Rainfall 0.00 in
Snow Depth Not available.
UV 0 out of 12
Pollen 4.50 out of 12
Air Quality Not available.
Flu Activity Not available.
METAR KSGU 020735Z AUTO 16005KT 10SM FEW120 27/12 A2997 RMK AO1

More Conditions Fewer Conditions

10-Day Weather Forecast

×

Almanac

Astronomy

Aug. 02, 2015 Rise Set
Actual Time
Civil Twilight
Nautical Twilight
Astronomical Twilight
Moon
Length of Visible Light
Length of Day
Tomorrow will be .
, % of the Moon is Illuminated

Today's Extremes

State Highs State Lows

Community

WunderPhotos

Upload Photos

1,843,198 photos uploaded!

WunderBlogs® & News

Nearby

Air Quality

  Air Quality AQ Index Pollutant
Not available.

Snow Depth

Station Depth Elevation

Earthquake Activity

City Distance Mag. Time & Date
Minimum magnitude displayed is 2.5.

Coastal Water Temperatures

Place Temperature

Stations

Nearby Weather Stations

Station Location Temp. Windchill Dew Point Humidity Wind Precip. Elev Updated Type